Main page
METAR-TAF:

METAR-TAF

Airports :

Effingham County Memorial Airport

Effingham, Illinois, United States

latitude: 39-04-14N, longitude: 088-32-00W, elevation: 587 ft

Current weather observation

The report was made 40 minutes ago, at 14:35 UTC
Wind 3 mph from the East/Northeast
Temperature 77°F
Humidity 79%
Pressure 30.22 in. Hg
Visibility: 10 miles
Clear sky

METAR: K1H2 251435Z AUTO 06003KT 10SM CLR 25/21 A3022 RMK AO2 LTG DSNT NW T02540207

Time: 10:15 (15:15 UTC)


TAF: missing

Weather observations and forecasts of more than 4000 airports (METAR and TAF reports).

The available stations are represented by yellow and red dots on the map.

Hover mouse over dot to see the name of the station.

Then click to see weather observations and forecasts.

To change the map : click on the green buttons with a black cross to zoom in, on the green button with a dash to zoom out, or on the green arrows for adjacent maps.


METAR-TAF: